createdAt,value
2023-03-26T00:01:25.306Z,4.95
2023-03-26T00:03:53.743Z,7.37
2023-03-26T00:06:22.897Z,5.75
2023-03-26T00:08:51.043Z,4.90
2023-03-26T00:11:19.824Z,6.13
2023-03-26T00:13:47.586Z,4.90
2023-03-26T00:16:16.946Z,3.88
2023-03-26T00:18:44.770Z,6.55
2023-03-26T00:21:14.839Z,4.82
2023-03-26T00:23:42.982Z,5.95
2023-03-26T00:26:11.105Z,5.82
2023-03-26T00:28:40.300Z,6.03
2023-03-26T00:31:09.738Z,5.50
2023-03-26T00:33:38.319Z,5.32
2023-03-26T00:36:09.901Z,5.53
2023-03-26T00:38:39.348Z,5.07
2023-03-26T00:41:17.645Z,5.22
2023-03-26T00:43:46.673Z,6.70
2023-03-26T00:46:13.821Z,5.03
2023-03-26T00:48:45.540Z,5.55
2023-03-26T00:51:17.498Z,6.20
2023-03-26T00:53:46.380Z,4.57
2023-03-26T00:56:13.587Z,5.78
2023-03-26T00:58:40.917Z,4.43
2023-03-26T01:01:13.597Z,3.53
2023-03-26T01:03:50.109Z,5.20
2023-03-26T01:06:32.896Z,5.50
2023-03-26T01:09:06.903Z,4.88
2023-03-26T01:11:35.326Z,5.38
2023-03-26T01:14:11.542Z,5.35
2023-03-26T01:16:45.073Z,4.30
2023-03-26T01:19:31.722Z,5.55
2023-03-26T01:21:58.974Z,4.07
2023-03-26T01:24:26.074Z,4.88
2023-03-26T01:27:05.111Z,6.05
2023-03-26T01:29:52.724Z,3.67
2023-03-26T01:32:38.375Z,5.28
2023-03-26T01:35:40.676Z,4.68
2023-03-26T01:38:13.265Z,3.43
2023-03-26T01:41:01.464Z,6.10
2023-03-26T01:43:34.705Z,4.82
2023-03-26T01:46:06.662Z,4.57
2023-03-26T01:48:39.762Z,4.45
2023-03-26T01:51:07.894Z,4.03
2023-03-26T01:53:47.370Z,3.97
2023-03-26T01:56:32.334Z,5.40
2023-03-26T01:59:16.186Z,5.28
2023-03-26T02:02:01.214Z,3.85
2023-03-26T02:04:53.449Z,4.68
2023-03-26T02:07:51.027Z,4.28
2023-03-26T02:10:27.410Z,4.60
2023-03-26T02:12:54.629Z,4.28
2023-03-26T02:15:22.072Z,3.95
2023-03-26T02:17:49.631Z,4.45
2023-03-26T02:20:18.851Z,5.07
2023-03-26T02:22:47.142Z,4.77
2023-03-26T02:25:19.133Z,3.65
2023-03-26T02:27:47.641Z,3.38
2023-03-26T02:30:18.297Z,5.25
2023-03-26T02:32:52.249Z,5.70
2023-03-26T02:35:21.976Z,4.47
2023-03-26T02:37:52.411Z,5.03
2023-03-26T02:40:22.268Z,5.50
2023-03-26T02:42:50.294Z,4.05
2023-03-26T02:45:17.209Z,4.00
2023-03-26T02:48:02.589Z,7.40
2023-03-26T02:50:54.135Z,3.90
2023-03-26T02:53:44.051Z,3.58
2023-03-26T02:56:34.136Z,5.90
2023-03-26T02:59:15.697Z,3.72
2023-03-26T03:01:44.984Z,4.57
2023-03-26T03:04:13.948Z,3.13
2023-03-26T03:06:41.544Z,4.72
2023-03-26T03:09:11.138Z,4.28
2023-03-26T03:11:57.933Z,5.60
2023-03-26T03:14:24.712Z,4.05
2023-03-26T03:16:53.824Z,4.53
2023-03-26T03:19:22.094Z,6.57
2023-03-26T03:21:48.988Z,4.18
2023-03-26T03:24:18.405Z,5.18
2023-03-26T03:26:47.676Z,5.00
2023-03-26T03:29:34.665Z,3.70
2023-03-26T03:32:30.825Z,12.80
2023-03-26T03:35:01.641Z,23.15
2023-03-26T03:37:29.015Z,50.20
2023-03-26T03:39:57.909Z,65.38
2023-03-26T03:42:27.977Z,113.37
2023-03-26T03:44:57.542Z,135.70
2023-03-26T03:47:43.159Z,303.83
2023-03-26T03:50:11.189Z,247.90
2023-03-26T03:52:44.154Z,213.35
2023-03-26T03:55:13.887Z,165.70
2023-03-26T03:57:46.850Z,160.43
2023-03-26T04:00:19.797Z,212.50
2023-03-26T04:02:58.788Z,111.60
2023-03-26T04:05:27.932Z,137.10
2023-03-26T04:07:54.752Z,79.10
2023-03-26T04:10:43.169Z,211.35
2023-03-26T04:13:32.846Z,212.10
2023-03-26T04:16:19.051Z,200.10
2023-03-26T04:18:48.430Z,265.42
2023-03-26T04:21:15.911Z,270.27
2023-03-26T04:23:43.770Z,266.38
2023-03-26T04:26:31.316Z,260.80
2023-03-26T04:29:12.825Z,299.60
2023-03-26T04:31:39.809Z,351.42
2023-03-26T04:34:13.629Z,291.25
2023-03-26T04:36:54.438Z,283.77
2023-03-26T04:39:29.242Z,399.88
2023-03-26T04:42:19.846Z,435.67
2023-03-26T04:44:59.826Z,350.30
2023-03-26T04:47:28.969Z,307.02
2023-03-26T04:49:55.985Z,420.08
2023-03-26T04:52:23.205Z,496.45
2023-03-26T04:55:27.902Z,400.70
2023-03-26T04:58:05.487Z,443.70
2023-03-26T05:00:55.145Z,559.67
2023-03-26T05:03:22.098Z,460.33
2023-03-26T05:05:49.651Z,365.17
2023-03-26T05:08:16.684Z,482.38
2023-03-26T05:10:43.797Z,456.60
2023-03-26T05:13:15.421Z,255.70
2023-03-26T05:15:48.322Z,286.83
2023-03-26T05:18:23.941Z,218.82
2023-03-26T05:20:53.037Z,248.63
2023-03-26T05:23:20.437Z,213.37
2023-03-26T05:25:53.912Z,252.63
2023-03-26T05:28:25.598Z,327.67
2023-03-26T05:31:01.117Z,301.13
2023-03-26T05:33:32.388Z,306.85
2023-03-26T05:36:07.506Z,204.68
2023-03-26T05:38:35.782Z,292.85
2023-03-26T05:41:07.514Z,353.40
2023-03-26T05:43:36.642Z,358.93
2023-03-26T05:46:10.456Z,271.43
2023-03-26T05:48:38.246Z,178.55
2023-03-26T05:51:06.387Z,252.57
2023-03-26T05:53:33.832Z,253.37
2023-03-26T05:56:38.558Z,320.13
2023-03-26T05:59:28.120Z,300.58
2023-03-26T06:02:13.562Z,334.90
2023-03-26T06:04:59.127Z,354.60
2023-03-26T06:07:35.069Z,412.00
2023-03-26T06:10:17.991Z,469.60
2023-03-26T06:12:46.044Z,442.50
2023-03-26T06:15:13.102Z,461.33
2023-03-26T06:17:48.193Z,678.67
2023-03-26T06:20:32.693Z,651.78
2023-03-26T06:23:03.013Z,397.65
2023-03-26T06:25:59.541Z,461.83
2023-03-26T06:29:01.528Z,277.80
2023-03-26T06:31:44.900Z,380.00
2023-03-26T06:34:16.520Z,720.92
2023-03-26T06:36:43.521Z,542.15
2023-03-26T06:39:10.584Z,647.33
2023-03-26T06:41:43.873Z,826.85
2023-03-26T06:44:21.519Z,767.22
2023-03-26T06:47:14.317Z,659.33
2023-03-26T06:49:50.493Z,134.02
2023-03-26T06:52:37.834Z,181.73
2023-03-26T06:55:23.460Z,189.20
2023-03-26T06:58:14.030Z,331.98
2023-03-26T07:00:56.816Z,239.37
2023-03-26T07:03:42.230Z,188.20
2023-03-26T07:06:28.999Z,192.77
2023-03-26T07:09:14.547Z,184.70
2023-03-26T07:12:07.882Z,247.55
2023-03-26T07:15:05.606Z,304.47
2023-03-26T07:17:52.391Z,293.98
2023-03-26T07:20:31.070Z,304.58
2023-03-26T07:22:59.352Z,302.13
2023-03-26T07:25:49.650Z,279.33
2023-03-26T07:29:03.612Z,314.50
2023-03-26T07:32:18.472Z,296.40
2023-03-26T07:35:07.627Z,338.88
2023-03-26T07:38:32.880Z,283.67
2023-03-26T07:41:37.088Z,306.88
2023-03-26T07:44:54.580Z,298.63
2023-03-26T07:47:39.502Z,317.92
2023-03-26T07:50:19.100Z,384.23
2023-03-26T07:53:09.366Z,443.08
2023-03-26T07:56:17.888Z,373.10
2023-03-26T07:59:38.168Z,409.83
2023-03-26T08:02:41.288Z,258.67
2023-03-26T08:05:50.329Z,408.67
2023-03-26T08:08:58.769Z,459.20
2023-03-26T08:12:02.650Z,547.43
2023-03-26T08:14:51.796Z,560.83
2023-03-26T08:17:31.007Z,565.73
2023-03-26T08:20:22.850Z,596.47
2023-03-26T08:23:09.326Z,588.47
2023-03-26T08:25:51.270Z,673.30
2023-03-26T08:28:37.749Z,693.17
2023-03-26T08:31:13.648Z,613.70
2023-03-26T08:33:40.737Z,552.35
2023-03-26T08:36:15.661Z,641.67
2023-03-26T08:38:46.727Z,553.83
2023-03-26T08:41:46.795Z,558.20
2023-03-26T08:45:04.882Z,554.42
2023-03-26T08:47:56.971Z,509.92
2023-03-26T08:50:42.134Z,316.70
2023-03-26T08:53:43.503Z,659.00
2023-03-26T08:56:32.230Z,749.55
2023-03-26T08:59:34.174Z,685.63
2023-03-26T09:02:06.789Z,665.42
2023-03-26T09:05:25.264Z,723.22
2023-03-26T09:08:18.778Z,800.35
2023-03-26T09:10:53.232Z,569.33
2023-03-26T09:13:47.689Z,608.28
2023-03-26T09:16:26.143Z,411.27
2023-03-26T09:19:11.720Z,462.27
2023-03-26T09:22:02.731Z,416.02
2023-03-26T09:24:57.098Z,411.88
2023-03-26T09:27:59.468Z,448.27
2023-03-26T09:30:47.062Z,460.83
2023-03-26T09:33:16.688Z,353.83
2023-03-26T09:35:52.699Z,375.48
2023-03-26T09:38:33.302Z,231.93
2023-03-26T09:41:35.273Z,232.23
2023-03-26T09:44:19.934Z,216.00
2023-03-26T09:47:20.030Z,169.48
2023-03-26T09:50:00.628Z,208.03
2023-03-26T09:52:43.584Z,235.47
2023-03-26T09:55:28.269Z,313.13
2023-03-26T09:58:13.377Z,404.13
2023-03-26T10:01:11.067Z,421.20
2023-03-26T10:03:51.924Z,380.27
2023-03-26T10:06:39.280Z,397.65
2023-03-26T10:09:38.179Z,353.75
2023-03-26T10:12:13.870Z,394.75
2023-03-26T10:15:19.010Z,398.98
2023-03-26T10:18:27.563Z,303.25
2023-03-26T10:21:07.011Z,348.17
2023-03-26T10:24:01.349Z,369.38
2023-03-26T10:27:08.731Z,451.13
2023-03-26T10:29:41.502Z,411.48
2023-03-26T10:32:47.355Z,430.23
2023-03-26T10:35:41.907Z,347.13
2023-03-26T10:38:29.124Z,413.15
2023-03-26T10:41:22.463Z,370.15
2023-03-26T10:44:14.438Z,388.92
2023-03-26T10:47:00.119Z,371.80
2023-03-26T10:49:52.773Z,389.23
2023-03-26T10:52:47.710Z,398.10
2023-03-26T10:55:18.908Z,420.88
2023-03-26T10:57:50.403Z,390.15
2023-03-26T11:00:25.598Z,409.98
2023-03-26T11:03:20.576Z,500.85
2023-03-26T11:05:51.364Z,465.10
2023-03-26T11:08:31.706Z,510.77
2023-03-26T11:11:15.316Z,503.45
2023-03-26T11:13:55.500Z,377.95
2023-03-26T11:16:35.090Z,534.90
2023-03-26T11:19:11.741Z,552.97
2023-03-26T11:21:50.569Z,479.88
2023-03-26T11:24:47.389Z,540.45
2023-03-26T11:27:38.871Z,558.83
2023-03-26T11:30:18.372Z,598.70
2023-03-26T11:33:00.194Z,614.90
2023-03-26T11:35:41.774Z,576.15
2023-03-26T11:38:23.926Z,544.40
2023-03-26T11:40:54.173Z,469.25
2023-03-26T11:43:41.824Z,589.27
2023-03-26T11:46:14.535Z,514.58
2023-03-26T11:48:48.957Z,502.25
2023-03-26T11:51:39.967Z,669.22
2023-03-26T11:54:10.689Z,685.28
2023-03-26T11:57:04.764Z,695.88
2023-03-26T11:59:45.257Z,683.00
2023-03-26T12:02:35.561Z,851.25
2023-03-26T12:05:27.346Z,551.83
2023-03-26T12:07:59.383Z,540.05
2023-03-26T12:10:38.170Z,422.50
2023-03-26T12:13:37.399Z,545.55
2023-03-26T12:16:17.546Z,557.55
2023-03-26T12:18:46.730Z,650.42
2023-03-26T12:21:18.085Z,648.85
2023-03-26T12:23:56.263Z,563.97
2023-03-26T12:26:35.188Z,510.80
2023-03-26T12:29:09.593Z,427.02
2023-03-26T12:31:46.786Z,590.70
2023-03-26T12:34:16.659Z,754.10
2023-03-26T12:37:30.290Z,531.10
2023-03-26T12:40:35.679Z,626.28
2023-03-26T12:44:54.550Z,608.75
2023-03-26T12:47:55.499Z,653.88
2023-03-26T12:48:44.327Z,703.05
2023-03-26T12:51:38.127Z,786.42
2023-03-26T12:54:28.713Z,897.17
2023-03-26T12:57:12.164Z,539.67
2023-03-26T12:59:57.285Z,749.78
2023-03-26T13:02:41.268Z,844.83
2023-03-26T13:05:26.697Z,720.88
2023-03-26T13:07:53.476Z,681.85
2023-03-26T13:10:29.311Z,880.13
2023-03-26T13:13:39.844Z,737.00
2023-03-26T13:16:34.689Z,963.25
2023-03-26T13:19:26.991Z,860.08
2023-03-26T13:22:21.923Z,644.13
2023-03-26T13:25:25.588Z,649.05
2023-03-26T13:28:21.668Z,842.08
2023-03-26T13:31:04.243Z,717.80
2023-03-26T13:34:08.742Z,755.00
2023-03-26T13:36:59.930Z,501.33
2023-03-26T13:39:37.760Z,298.70
2023-03-26T13:42:23.223Z,348.90
2023-03-26T13:45:18.541Z,345.58
2023-03-26T13:47:52.080Z,276.17
2023-03-26T13:50:30.404Z,676.58
2023-03-26T13:53:06.327Z,718.50
2023-03-26T13:55:46.000Z,328.35
2023-03-26T13:58:34.749Z,636.28
2023-03-26T14:01:16.615Z,590.80
2023-03-26T14:04:02.450Z,573.72
2023-03-26T14:06:57.477Z,608.83
2023-03-26T14:09:33.531Z,710.85
2023-03-26T14:12:27.376Z,632.20
2023-03-26T14:15:03.882Z,731.67
2023-03-26T14:17:56.626Z,657.03
2023-03-26T14:21:25.500Z,653.27
2023-03-26T14:24:16.739Z,610.53
2023-03-26T14:27:09.832Z,681.70
2023-03-26T14:29:56.666Z,714.60
2023-03-26T14:33:05.847Z,774.88
2023-03-26T14:35:37.321Z,697.92
2023-03-26T14:38:53.831Z,688.88
2023-03-26T14:41:25.510Z,807.72
2023-03-26T14:43:52.164Z,742.47
2023-03-26T14:46:50.252Z,803.97
2023-03-26T14:49:46.424Z,819.92
2023-03-26T14:52:34.158Z,833.22
2023-03-26T14:55:07.639Z,849.45
2023-03-26T14:57:52.439Z,789.42
2023-03-26T15:00:31.505Z,455.38
2023-03-26T15:03:25.932Z,372.85
2023-03-26T15:06:21.018Z,700.15
2023-03-26T15:09:25.847Z,383.70
2023-03-26T15:12:13.106Z,372.83
2023-03-26T15:15:07.065Z,710.67
2023-03-26T15:17:58.207Z,794.45
2023-03-26T15:20:55.901Z,854.78
2023-03-26T15:23:28.789Z,644.50
2023-03-26T15:26:20.301Z,631.22
2023-03-26T15:28:53.049Z,628.60
2023-03-26T15:31:20.989Z,688.50
2023-03-26T15:34:12.696Z,782.43
2023-03-26T15:36:53.837Z,758.13
2023-03-26T15:39:44.219Z,736.00
2023-03-26T15:42:48.225Z,653.03
2023-03-26T15:45:14.993Z,633.03
2023-03-26T15:47:51.459Z,657.42
2023-03-26T15:50:37.892Z,709.38
2023-03-26T15:53:29.825Z,465.50
2023-03-26T15:56:29.637Z,871.97
2023-03-26T15:59:02.590Z,797.17
2023-03-26T16:01:48.338Z,744.88
2023-03-26T16:04:35.833Z,726.55
2023-03-26T16:07:23.808Z,872.85
2023-03-26T16:09:59.790Z,778.08
2023-03-26T16:12:30.779Z,688.72
2023-03-26T16:15:07.310Z,999.88
2023-03-26T16:18:12.198Z,1006.03
2023-03-26T16:21:01.836Z,850.15
2023-03-26T16:23:47.957Z,1007.70
2023-03-26T16:26:47.225Z,1016.92
2023-03-26T16:29:18.050Z,1024.50
2023-03-26T16:32:18.540Z,1040.75
2023-03-26T16:34:54.819Z,1046.57
2023-03-26T16:37:35.505Z,1027.68
2023-03-26T16:40:17.416Z,1065.38
2023-03-26T16:43:14.516Z,1028.53
2023-03-26T16:46:00.345Z,1050.68
2023-03-26T16:48:38.184Z,1069.75
2023-03-26T16:51:12.315Z,1067.13
2023-03-26T16:53:46.186Z,1081.65
2023-03-26T16:56:27.810Z,1071.13
2023-03-26T16:59:31.016Z,1071.22
2023-03-26T17:02:13.578Z,1056.03
2023-03-26T17:04:47.418Z,960.53
2023-03-26T17:07:28.794Z,760.53
2023-03-26T17:10:03.263Z,971.00
2023-03-26T17:12:46.413Z,1031.13
2023-03-26T17:15:36.334Z,1069.32
2023-03-26T17:18:16.605Z,1071.17
2023-03-26T17:21:11.646Z,958.38
2023-03-26T17:24:02.701Z,1067.60
2023-03-26T17:26:55.870Z,831.72
2023-03-26T17:29:49.216Z,876.30
2023-03-26T17:32:17.486Z,896.35
2023-03-26T17:34:50.376Z,706.30
2023-03-26T17:37:17.125Z,930.38
2023-03-26T17:39:45.359Z,862.03
2023-03-26T17:42:35.552Z,974.40
2023-03-26T17:45:25.000Z,815.97
2023-03-26T17:48:05.051Z,625.28
2023-03-26T17:50:52.173Z,609.03
2023-03-26T17:53:29.354Z,665.77
2023-03-26T17:56:03.073Z,690.20
2023-03-26T17:58:36.706Z,617.70
2023-03-26T18:01:25.807Z,904.93
2023-03-26T18:03:56.413Z,872.53
2023-03-26T18:06:51.638Z,982.88
2023-03-26T18:09:37.037Z,1034.75
2023-03-26T18:12:40.806Z,1036.70
2023-03-26T18:15:30.038Z,1017.85
2023-03-26T18:18:30.568Z,790.90
2023-03-26T18:21:00.364Z,711.78
2023-03-26T18:23:47.675Z,635.15
2023-03-26T18:26:19.754Z,688.20
2023-03-26T18:28:52.958Z,609.00
2023-03-26T18:31:24.878Z,588.05
2023-03-26T18:33:58.906Z,613.80
2023-03-26T18:36:27.819Z,568.33
2023-03-26T18:39:00.790Z,565.05
2023-03-26T18:41:32.606Z,556.78
2023-03-26T18:44:05.458Z,734.97
2023-03-26T18:46:33.991Z,573.83
2023-03-26T18:49:02.759Z,824.17
2023-03-26T18:51:31.847Z,994.28
2023-03-26T18:54:02.773Z,1040.30
2023-03-26T18:56:38.523Z,1080.40
2023-03-26T18:59:21.772Z,1081.90
2023-03-26T19:01:50.862Z,1015.97
2023-03-26T19:04:18.320Z,1045.60
2023-03-26T19:06:46.079Z,900.97
2023-03-26T19:09:30.435Z,1002.05
2023-03-26T19:12:16.560Z,983.40
2023-03-26T19:15:13.910Z,955.57
2023-03-26T19:17:47.139Z,967.20
2023-03-26T19:20:21.593Z,1005.58
2023-03-26T19:22:49.214Z,990.03
2023-03-26T19:25:39.506Z,936.45
2023-03-26T19:28:13.890Z,963.20
2023-03-26T19:30:42.043Z,950.78
2023-03-26T19:33:18.163Z,889.10
2023-03-26T19:35:50.728Z,1003.47
2023-03-26T19:38:29.100Z,1028.10
2023-03-26T19:40:57.796Z,954.85
2023-03-26T19:43:26.174Z,943.53
2023-03-26T19:45:59.989Z,909.95
2023-03-26T19:48:46.457Z,979.50
2023-03-26T19:51:20.950Z,1012.95
2023-03-26T19:53:55.625Z,1028.07
2023-03-26T19:56:23.073Z,1074.70
2023-03-26T19:58:52.696Z,1082.13
2023-03-26T20:01:22.474Z,1074.43
2023-03-26T20:03:52.816Z,1069.15
2023-03-26T20:06:30.898Z,1083.75
2023-03-26T20:09:05.200Z,1084.85
2023-03-26T20:11:38.657Z,1060.00
2023-03-26T20:14:15.829Z,1084.28
2023-03-26T20:16:44.985Z,1084.47
2023-03-26T20:19:13.736Z,1084.20
2023-03-26T20:21:41.229Z,1069.60
2023-03-26T20:24:17.797Z,1071.20
2023-03-26T20:26:48.126Z,1059.13
2023-03-26T20:29:15.746Z,1035.55
2023-03-26T20:31:43.226Z,949.30
2023-03-26T20:34:18.658Z,916.90
2023-03-26T20:36:46.546Z,936.55
2023-03-26T20:39:14.013Z,888.40
2023-03-26T20:41:45.429Z,868.35
2023-03-26T20:44:15.669Z,900.47
2023-03-26T20:46:44.103Z,946.08
2023-03-26T20:49:11.968Z,883.85
2023-03-26T20:51:41.655Z,881.13
2023-03-26T20:54:23.762Z,809.03
2023-03-26T20:56:51.626Z,956.25
2023-03-26T20:59:26.407Z,1022.08
2023-03-26T21:01:54.790Z,973.33
2023-03-26T21:04:22.091Z,1006.92
2023-03-26T21:06:49.097Z,1035.15
2023-03-26T21:09:19.039Z,1022.45
2023-03-26T21:12:17.812Z,786.40
2023-03-26T21:14:44.951Z,1045.05
2023-03-26T21:17:16.800Z,1036.40
2023-03-26T21:19:44.313Z,1009.10
2023-03-26T21:22:25.524Z,1020.15
2023-03-26T21:25:03.331Z,1001.33
2023-03-26T21:27:40.052Z,832.33
2023-03-26T21:30:13.722Z,1062.32
2023-03-26T21:32:41.512Z,1084.13
2023-03-26T21:35:09.121Z,982.70
2023-03-26T21:37:37.463Z,1093.78
2023-03-26T21:40:15.000Z,1096.80
2023-03-26T21:42:42.792Z,1092.43
2023-03-26T21:45:10.436Z,1106.20
2023-03-26T21:47:37.538Z,1058.18
2023-03-26T21:50:05.934Z,1098.78
2023-03-26T21:52:33.346Z,1101.80
2023-03-26T21:55:01.333Z,1093.10
2023-03-26T21:57:44.334Z,1056.28
2023-03-26T22:00:16.287Z,989.38
2023-03-26T22:03:01.616Z,1088.47
2023-03-26T22:05:50.410Z,1091.82
2023-03-26T22:08:30.464Z,1097.85
2023-03-26T22:10:57.706Z,1092.60
2023-03-26T22:13:25.497Z,1092.57
2023-03-26T22:15:52.336Z,1079.47
2023-03-26T22:18:24.405Z,1097.90
2023-03-26T22:20:51.894Z,1088.70
2023-03-26T22:23:18.814Z,1095.78
2023-03-26T22:25:46.203Z,1033.40
2023-03-26T22:28:13.670Z,1087.63
2023-03-26T22:30:40.743Z,1090.03
2023-03-26T22:33:11.873Z,1089.63
2023-03-26T22:35:41.123Z,994.13
2023-03-26T22:38:09.533Z,838.00
2023-03-26T22:40:36.520Z,1040.43
2023-03-26T22:43:03.966Z,1107.75
2023-03-26T22:45:30.728Z,1083.47
2023-03-26T22:48:03.778Z,1087.20
2023-03-26T22:50:32.053Z,1088.23
2023-03-26T22:52:58.884Z,1101.63
2023-03-26T22:55:28.776Z,1095.03
2023-03-26T22:57:57.073Z,1092.93
2023-03-26T23:00:26.233Z,1094.10
2023-03-26T23:02:53.228Z,1097.65
2023-03-26T23:05:20.298Z,1101.05
2023-03-26T23:07:48.775Z,1101.28
2023-03-26T23:10:15.492Z,1072.25
2023-03-26T23:12:42.328Z,988.00
2023-03-26T23:15:09.958Z,1103.15
2023-03-26T23:17:37.826Z,1114.53
2023-03-26T23:20:14.774Z,1106.68
2023-03-26T23:22:43.565Z,1095.20
2023-03-26T23:25:11.381Z,1096.87
2023-03-26T23:27:39.896Z,1094.03
2023-03-26T23:30:07.197Z,1099.13
2023-03-26T23:32:38.194Z,1082.03
2023-03-26T23:35:05.934Z,1099.78
2023-03-26T23:37:34.789Z,1079.37
2023-03-26T23:40:01.958Z,1093.50
2023-03-26T23:42:29.737Z,1085.05
2023-03-26T23:44:57.394Z,1101.50
2023-03-26T23:47:24.513Z,1100.67
2023-03-26T23:49:51.464Z,1097.15
2023-03-26T23:52:18.679Z,1090.10
2023-03-26T23:54:45.617Z,1096.80
2023-03-26T23:57:12.677Z,1108.80
2023-03-26T23:59:41.171Z,1100.37
